sensor_id;sensor_type;location;lat;lon;timestamp;P1;durP1;ratioP1;P2;durP2;ratioP2
23262;SDS011;11800;49.830;9.922;2022-08-11T00:01:34;0.00;;;0.00;;
23262;SDS011;11800;49.830;9.922;2022-08-11T00:04:02;0.03;;;0.03;;
23262;SDS011;11800;49.830;9.922;2022-08-11T00:06:34;0.10;;;0.10;;
23262;SDS011;11800;49.830;9.922;2022-08-11T00:09:00;0.00;;;0.00;;
23262;SDS011;11800;49.830;9.922;2022-08-11T00:11:32;0.00;;;0.00;;
23262;SDS011;11800;49.830;9.922;2022-08-11T00:13:58;0.00;;;0.00;;
23262;SDS011;11800;49.830;9.922;2022-08-11T00:16:24;0.00;;;0.00;;
23262;SDS011;11800;49.830;9.922;2022-08-11T00:18:52;0.03;;;0.03;;
23262;SDS011;11800;49.830;9.922;2022-08-11T00:21:19;0.00;;;0.00;;
23262;SDS011;11800;49.830;9.922;2022-08-11T00:23:51;0.00;;;0.00;;
23262;SDS011;11800;49.830;9.922;2022-08-11T00:26:17;0.00;;;0.00;;
23262;SDS011;11800;49.830;9.922;2022-08-11T00:28:43;0.00;;;0.00;;
23262;SDS011;11800;49.830;9.922;2022-08-11T00:31:18;0.10;;;0.10;;
23262;SDS011;11800;49.830;9.922;2022-08-11T00:33:45;0.00;;;0.00;;
23262;SDS011;11800;49.830;9.922;2022-08-11T00:36:15;0.00;;;0.00;;
23262;SDS011;11800;49.830;9.922;2022-08-11T00:38:42;0.00;;;0.00;;
23262;SDS011;11800;49.830;9.922;2022-08-11T00:41:18;0.00;;;0.00;;
23262;SDS011;11800;49.830;9.922;2022-08-11T00:43:50;0.00;;;0.00;;
23262;SDS011;11800;49.830;9.922;2022-08-11T00:46:28;0.00;;;0.00;;
23262;SDS011;11800;49.830;9.922;2022-08-11T00:49:09;0.10;;;0.10;;
23262;SDS011;11800;49.830;9.922;2022-08-11T01:12:43;0.00;;;0.00;;
23262;SDS011;11800;49.830;9.922;2022-08-11T01:15:27;0.00;;;0.00;;
23262;SDS011;11800;49.830;9.922;2022-08-11T01:47:19;0.10;;;0.10;;
23262;SDS011;11800;49.830;9.922;2022-08-11T01:58:19;0.00;;;0.00;;
23262;SDS011;11800;49.830;9.922;2022-08-11T02:01:01;0.05;;;0.05;;
23262;SDS011;11800;49.830;9.922;2022-08-11T02:03:45;0.00;;;0.00;;
23262;SDS011;11800;49.830;9.922;2022-08-11T02:06:25;0.10;;;0.10;;
23262;SDS011;11800;49.830;9.922;2022-08-11T02:12:02;0.08;;;0.08;;
23262;SDS011;11800;49.830;9.922;2022-08-11T02:14:56;0.03;;;0.03;;
23262;SDS011;11800;49.830;9.922;2022-08-11T02:20:15;0.00;;;0.00;;
23262;SDS011;11800;49.830;9.922;2022-08-11T02:29:00;0.00;;;0.00;;
23262;SDS011;11800;49.830;9.922;2022-08-11T02:47:38;0.10;;;0.10;;
23262;SDS011;11800;49.830;9.922;2022-08-11T02:58:01;0.10;;;0.10;;
23262;SDS011;11800;49.830;9.922;2022-08-11T03:00:29;0.10;;;0.10;;
23262;SDS011;11800;49.830;9.922;2022-08-11T03:13:55;0.05;;;0.05;;
23262;SDS011;11800;49.830;9.922;2022-08-11T03:19:33;0.10;;;0.10;;
23262;SDS011;11800;49.830;9.922;2022-08-11T03:24:38;0.10;;;0.10;;
23262;SDS011;11800;49.830;9.922;2022-08-11T03:27:06;0.00;;;0.00;;
23262;SDS011;11800;49.830;9.922;2022-08-11T03:29:46;0.00;;;0.00;;
23262;SDS011;11800;49.830;9.922;2022-08-11T03:32:37;0.10;;;0.10;;
23262;SDS011;11800;49.830;9.922;2022-08-11T03:35:08;0.10;;;0.10;;
23262;SDS011;11800;49.830;9.922;2022-08-11T03:43:04;0.00;;;0.00;;
23262;SDS011;11800;49.830;9.922;2022-08-11T03:45:34;0.00;;;0.00;;
23262;SDS011;11800;49.830;9.922;2022-08-11T03:53:13;0.00;;;0.00;;
23262;SDS011;11800;49.830;9.922;2022-08-11T04:03:38;0.10;;;0.10;;
23262;SDS011;11800;49.830;9.922;2022-08-11T04:25:07;0.00;;;0.00;;
23262;SDS011;11800;49.830;9.922;2022-08-11T04:36:09;0.10;;;0.10;;
23262;SDS011;11800;49.830;9.922;2022-08-11T04:38:57;0.00;;;0.00;;
23262;SDS011;11800;49.830;9.922;2022-08-11T05:07:16;0.08;;;0.08;;
23262;SDS011;11800;49.830;9.922;2022-08-11T05:12:54;0.00;;;0.00;;
23262;SDS011;11800;49.830;9.922;2022-08-11T05:15:00;0.00;;;0.00;;
23262;SDS011;11800;49.830;9.922;2022-08-11T05:21:07;0.10;;;0.10;;
23262;SDS011;11800;49.830;9.922;2022-08-11T05:23:55;0.10;;;0.10;;
23262;SDS011;11800;49.830;9.922;2022-08-11T05:26:45;0.10;;;0.10;;
23262;SDS011;11800;49.830;9.922;2022-08-11T05:29:35;0.00;;;0.00;;
23262;SDS011;11800;49.830;9.922;2022-08-11T05:32:22;0.10;;;0.10;;
23262;SDS011;11800;49.830;9.922;2022-08-11T05:35:08;0.10;;;0.10;;
23262;SDS011;11800;49.830;9.922;2022-08-11T05:37:37;0.10;;;0.10;;
23262;SDS011;11800;49.830;9.922;2022-08-11T05:40:10;0.05;;;0.05;;
23262;SDS011;11800;49.830;9.922;2022-08-11T05:42:59;0.00;;;0.00;;
23262;SDS011;11800;49.830;9.922;2022-08-11T05:45:55;0.05;;;0.05;;
23262;SDS011;11800;49.830;9.922;2022-08-11T05:48:39;0.00;;;0.00;;
23262;SDS011;11800;49.830;9.922;2022-08-11T05:51:31;0.03;;;0.03;;
23262;SDS011;11800;49.830;9.922;2022-08-11T05:54:16;0.00;;;0.00;;
23262;SDS011;11800;49.830;9.922;2022-08-11T05:57:01;0.10;;;0.10;;
23262;SDS011;11800;49.830;9.922;2022-08-11T05:59:27;0.05;;;0.05;;
23262;SDS011;11800;49.830;9.922;2022-08-11T06:02:01;0.10;;;0.10;;
23262;SDS011;11800;49.830;9.922;2022-08-11T06:04:27;0.00;;;0.00;;
23262;SDS011;11800;49.830;9.922;2022-08-11T06:07:07;0.00;;;0.00;;
23262;SDS011;11800;49.830;9.922;2022-08-11T06:09:37;0.10;;;0.10;;
23262;SDS011;11800;49.830;9.922;2022-08-11T06:12:08;0.00;;;0.00;;
23262;SDS011;11800;49.830;9.922;2022-08-11T06:14:41;0.00;;;0.00;;
23262;SDS011;11800;49.830;9.922;2022-08-11T06:17:08;0.10;;;0.10;;
23262;SDS011;11800;49.830;9.922;2022-08-11T06:19:37;0.10;;;0.10;;
23262;SDS011;11800;49.830;9.922;2022-08-11T06:22:05;0.03;;;0.03;;
23262;SDS011;11800;49.830;9.922;2022-08-11T06:24:33;0.10;;;0.10;;
23262;SDS011;11800;49.830;9.922;2022-08-11T06:27:00;0.10;;;0.10;;
23262;SDS011;11800;49.830;9.922;2022-08-11T06:29:26;0.00;;;0.00;;
23262;SDS011;11800;49.830;9.922;2022-08-11T06:31:55;0.00;;;0.00;;
23262;SDS011;11800;49.830;9.922;2022-08-11T06:34:30;0.00;;;0.00;;
23262;SDS011;11800;49.830;9.922;2022-08-11T06:44:56;0.00;;;0.00;;
23262;SDS011;11800;49.830;9.922;2022-08-11T06:47:29;0.00;;;0.00;;
23262;SDS011;11800;49.830;9.922;2022-08-11T06:49:55;0.00;;;0.00;;
23262;SDS011;11800;49.830;9.922;2022-08-11T06:52:41;0.10;;;0.10;;
23262;SDS011;11800;49.830;9.922;2022-08-11T06:55:10;0.08;;;0.08;;
23262;SDS011;11800;49.830;9.922;2022-08-11T06:57:36;0.00;;;0.00;;
23262;SDS011;11800;49.830;9.922;2022-08-11T07:00:22;0.10;;;0.10;;
23262;SDS011;11800;49.830;9.922;2022-08-11T07:11:00;0.10;;;0.10;;
23262;SDS011;11800;49.830;9.922;2022-08-11T07:13:53;0.10;;;0.10;;
23262;SDS011;11800;49.830;9.922;2022-08-11T07:16:41;0.10;;;0.10;;
23262;SDS011;11800;49.830;9.922;2022-08-11T07:19:09;0.00;;;0.00;;
23262;SDS011;11800;49.830;9.922;2022-08-11T07:24:40;0.00;;;0.00;;
23262;SDS011;11800;49.830;9.922;2022-08-11T07:27:32;0.00;;;0.00;;
23262;SDS011;11800;49.830;9.922;2022-08-11T07:30:19;0.08;;;0.08;;
23262;SDS011;11800;49.830;9.922;2022-08-11T07:32:48;0.00;;;0.00;;
23262;SDS011;11800;49.830;9.922;2022-08-11T07:35:16;0.05;;;0.05;;
23262;SDS011;11800;49.830;9.922;2022-08-11T07:37:49;0.10;;;0.10;;
23262;SDS011;11800;49.830;9.922;2022-08-11T07:40:23;0.05;;;0.05;;
23262;SDS011;11800;49.830;9.922;2022-08-11T07:42:49;0.00;;;0.00;;
23262;SDS011;11800;49.830;9.922;2022-08-11T07:45:16;0.00;;;0.00;;
23262;SDS011;11800;49.830;9.922;2022-08-11T07:48:00;0.08;;;0.08;;
23262;SDS011;11800;49.830;9.922;2022-08-11T07:50:46;0.10;;;0.10;;
23262;SDS011;11800;49.830;9.922;2022-08-11T07:53:31;0.10;;;0.10;;
23262;SDS011;11800;49.830;9.922;2022-08-11T07:55:59;0.00;;;0.00;;
23262;SDS011;11800;49.830;9.922;2022-08-11T07:58:25;0.00;;;0.00;;
23262;SDS011;11800;49.830;9.922;2022-08-11T08:01:11;0.10;;;0.10;;
23262;SDS011;11800;49.830;9.922;2022-08-11T08:04:00;0.10;;;0.10;;
23262;SDS011;11800;49.830;9.922;2022-08-11T08:06:45;0.10;;;0.10;;
23262;SDS011;11800;49.830;9.922;2022-08-11T08:09:32;0.00;;;0.00;;
23262;SDS011;11800;49.830;9.922;2022-08-11T08:12:22;0.10;;;0.10;;
23262;SDS011;11800;49.830;9.922;2022-08-11T08:15:09;0.08;;;0.08;;
23262;SDS011;11800;49.830;9.922;2022-08-11T08:17:58;0.05;;;0.05;;
23262;SDS011;11800;49.830;9.922;2022-08-11T08:20:27;0.10;;;0.10;;
23262;SDS011;11800;49.830;9.922;2022-08-11T08:22:54;0.10;;;0.10;;
23262;SDS011;11800;49.830;9.922;2022-08-11T08:25:24;0.10;;;0.10;;
23262;SDS011;11800;49.830;9.922;2022-08-11T08:27:51;0.08;;;0.08;;
23262;SDS011;11800;49.830;9.922;2022-08-11T08:30:18;0.00;;;0.00;;
23262;SDS011;11800;49.830;9.922;2022-08-11T08:33:03;0.00;;;0.00;;
23262;SDS011;11800;49.830;9.922;2022-08-11T08:35:29;0.00;;;0.00;;
23262;SDS011;11800;49.830;9.922;2022-08-11T08:37:56;0.00;;;0.00;;
23262;SDS011;11800;49.830;9.922;2022-08-11T08:40:23;0.00;;;0.00;;
23262;SDS011;11800;49.830;9.922;2022-08-11T08:42:55;0.08;;;0.08;;
23262;SDS011;11800;49.830;9.922;2022-08-11T08:45:21;0.05;;;0.05;;
23262;SDS011;11800;49.830;9.922;2022-08-11T08:48:00;0.00;;;0.00;;
23262;SDS011;11800;49.830;9.922;2022-08-11T08:50:29;0.10;;;0.10;;
23262;SDS011;11800;49.830;9.922;2022-08-11T08:53:16;0.00;;;0.00;;
23262;SDS011;11800;49.830;9.922;2022-08-11T08:55:45;0.10;;;0.10;;
23262;SDS011;11800;49.830;9.922;2022-08-11T08:58:12;0.10;;;0.10;;
23262;SDS011;11800;49.830;9.922;2022-08-11T09:00:39;0.08;;;0.08;;
23262;SDS011;11800;49.830;9.922;2022-08-11T09:03:06;0.10;;;0.10;;
23262;SDS011;11800;49.830;9.922;2022-08-11T09:05:32;0.10;;;0.10;;
23262;SDS011;11800;49.830;9.922;2022-08-11T09:07:58;0.10;;;0.10;;
23262;SDS011;11800;49.830;9.922;2022-08-11T09:10:24;0.10;;;0.10;;
23262;SDS011;11800;49.830;9.922;2022-08-11T09:12:51;0.10;;;0.10;;
23262;SDS011;11800;49.830;9.922;2022-08-11T09:15:17;0.10;;;0.10;;
23262;SDS011;11800;49.830;9.922;2022-08-11T09:17:48;0.10;;;0.10;;
23262;SDS011;11800;49.830;9.922;2022-08-11T09:20:22;0.10;;;0.10;;
23262;SDS011;11800;49.830;9.922;2022-08-11T09:22:50;0.00;;;0.00;;
23262;SDS011;11800;49.830;9.922;2022-08-11T09:25:35;0.10;;;0.10;;
23262;SDS011;11800;49.830;9.922;2022-08-11T09:28:20;0.00;;;0.00;;
23262;SDS011;11800;49.830;9.922;2022-08-11T09:30:48;0.10;;;0.10;;
23262;SDS011;11800;49.830;9.922;2022-08-11T09:33:18;0.10;;;0.10;;
23262;SDS011;11800;49.830;9.922;2022-08-11T09:35:45;0.10;;;0.10;;
23262;SDS011;11800;49.830;9.922;2022-08-11T09:38:12;0.10;;;0.10;;
23262;SDS011;11800;49.830;9.922;2022-08-11T09:43:24;0.10;;;0.10;;
23262;SDS011;11800;49.830;9.922;2022-08-11T09:46:09;0.10;;;0.10;;
23262;SDS011;11800;49.830;9.922;2022-08-11T09:48:37;0.05;;;0.05;;
23262;SDS011;11800;49.830;9.922;2022-08-11T09:51:04;0.03;;;0.03;;
23262;SDS011;11800;49.830;9.922;2022-08-11T09:53:33;0.10;;;0.10;;
23262;SDS011;11800;49.830;9.922;2022-08-11T09:55:59;0.10;;;0.10;;
23262;SDS011;11800;49.830;9.922;2022-08-11T09:58:46;0.00;;;0.00;;
23262;SDS011;11800;49.830;9.922;2022-08-11T10:01:13;0.10;;;0.10;;
23262;SDS011;11800;49.830;9.922;2022-08-11T10:03:52;0.10;;;0.10;;
23262;SDS011;11800;49.830;9.922;2022-08-11T10:06:21;0.10;;;0.10;;
23262;SDS011;11800;49.830;9.922;2022-08-11T10:09:06;0.10;;;0.10;;
23262;SDS011;11800;49.830;9.922;2022-08-11T10:11:32;0.10;;;0.10;;
23262;SDS011;11800;49.830;9.922;2022-08-11T10:13:59;0.10;;;0.10;;
23262;SDS011;11800;49.830;9.922;2022-08-11T10:16:46;0.10;;;0.10;;
23262;SDS011;11800;49.830;9.922;2022-08-11T10:19:13;0.10;;;0.10;;
23262;SDS011;11800;49.830;9.922;2022-08-11T10:21:44;0.10;;;0.10;;
23262;SDS011;11800;49.830;9.922;2022-08-11T10:24:32;0.10;;;0.10;;
23262;SDS011;11800;49.830;9.922;2022-08-11T10:27:16;0.10;;;0.10;;
23262;SDS011;11800;49.830;9.922;2022-08-11T10:29:42;0.10;;;0.10;;
23262;SDS011;11800;49.830;9.922;2022-08-11T10:32:28;0.10;;;0.10;;
23262;SDS011;11800;49.830;9.922;2022-08-11T10:35:13;0.10;;;0.10;;
23262;SDS011;11800;49.830;9.922;2022-08-11T10:37:40;0.10;;;0.10;;
23262;SDS011;11800;49.830;9.922;2022-08-11T10:40:08;0.10;;;0.10;;
23262;SDS011;11800;49.830;9.922;2022-08-11T10:42:35;0.10;;;0.10;;
23262;SDS011;11800;49.830;9.922;2022-08-11T10:45:21;0.10;;;0.10;;
23262;SDS011;11800;49.830;9.922;2022-08-11T10:48:06;0.10;;;0.10;;
23262;SDS011;11800;49.830;9.922;2022-08-11T10:50:34;0.10;;;0.10;;
23262;SDS011;11800;49.830;9.922;2022-08-11T10:53:20;0.10;;;0.10;;
23262;SDS011;11800;49.830;9.922;2022-08-11T10:56:05;0.10;;;0.10;;
23262;SDS011;11800;49.830;9.922;2022-08-11T10:58:50;0.10;;;0.10;;
23262;SDS011;11800;49.830;9.922;2022-08-11T11:01:30;0.10;;;0.10;;
23262;SDS011;11800;49.830;9.922;2022-08-11T11:03:57;0.10;;;0.10;;
23262;SDS011;11800;49.830;9.922;2022-08-11T11:06:32;0.10;;;0.10;;
23262;SDS011;11800;49.830;9.922;2022-08-11T11:09:16;0.03;;;0.03;;
23262;SDS011;11800;49.830;9.922;2022-08-11T11:11:48;0.10;;;0.10;;
23262;SDS011;11800;49.830;9.922;2022-08-11T11:14:34;0.10;;;0.10;;
23262;SDS011;11800;49.830;9.922;2022-08-11T11:17:30;0.10;;;0.10;;
23262;SDS011;11800;49.830;9.922;2022-08-11T11:20:34;0.10;;;0.10;;
23262;SDS011;11800;49.830;9.922;2022-08-11T11:23:02;0.10;;;0.10;;
23262;SDS011;11800;49.830;9.922;2022-08-11T11:25:33;0.10;;;0.10;;
23262;SDS011;11800;49.830;9.922;2022-08-11T11:30:45;0.10;;;0.10;;
23262;SDS011;11800;49.830;9.922;2022-08-11T11:33:21;0.10;;;0.10;;
23262;SDS011;11800;49.830;9.922;2022-08-11T11:38:35;0.10;;;0.10;;
23262;SDS011;11800;49.830;9.922;2022-08-11T11:41:01;0.10;;;0.10;;
23262;SDS011;11800;49.830;9.922;2022-08-11T11:43:46;0.03;;;0.03;;
23262;SDS011;11800;49.830;9.922;2022-08-11T11:46:12;0.10;;;0.10;;
23262;SDS011;11800;49.830;9.922;2022-08-11T11:48:38;0.10;;;0.10;;
23262;SDS011;11800;49.830;9.922;2022-08-11T11:51:05;0.10;;;0.10;;
23262;SDS011;11800;49.830;9.922;2022-08-11T11:53:31;0.10;;;0.10;;
23262;SDS011;11800;49.830;9.922;2022-08-11T11:55:58;0.10;;;0.10;;
23262;SDS011;11800;49.830;9.922;2022-08-11T11:58:25;0.10;;;0.10;;
23262;SDS011;11800;49.830;9.922;2022-08-11T12:01:10;0.10;;;0.10;;
23262;SDS011;11800;49.830;9.922;2022-08-11T12:03:49;0.10;;;0.10;;
23262;SDS011;11800;49.830;9.922;2022-08-11T12:06:17;0.08;;;0.08;;
23262;SDS011;11800;49.830;9.922;2022-08-11T12:08:43;0.10;;;0.10;;
23262;SDS011;11800;49.830;9.922;2022-08-11T12:11:12;0.10;;;0.10;;
23262;SDS011;11800;49.830;9.922;2022-08-11T12:14:03;0.10;;;0.10;;
23262;SDS011;11800;49.830;9.922;2022-08-11T12:16:30;0.10;;;0.10;;
23262;SDS011;11800;49.830;9.922;2022-08-11T12:18:58;0.10;;;0.10;;
23262;SDS011;11800;49.830;9.922;2022-08-11T12:21:25;0.10;;;0.10;;
23262;SDS011;11800;49.830;9.922;2022-08-11T12:23:51;0.10;;;0.10;;
23262;SDS011;11800;49.830;9.922;2022-08-11T12:26:38;0.10;;;0.10;;
23262;SDS011;11800;49.830;9.922;2022-08-11T12:29:13;0.10;;;0.10;;
23262;SDS011;11800;49.830;9.922;2022-08-11T12:31:40;0.10;;;0.10;;
23262;SDS011;11800;49.830;9.922;2022-08-11T12:34:07;0.10;;;0.10;;
23262;SDS011;11800;49.830;9.922;2022-08-11T12:36:36;0.10;;;0.10;;
23262;SDS011;11800;49.830;9.922;2022-08-11T12:39:05;0.10;;;0.10;;
23262;SDS011;11800;49.830;9.922;2022-08-11T12:41:31;0.10;;;0.10;;
23262;SDS011;11800;49.830;9.922;2022-08-11T12:44:16;0.10;;;0.10;;
23262;SDS011;11800;49.830;9.922;2022-08-11T12:47:06;0.10;;;0.10;;
23262;SDS011;11800;49.830;9.922;2022-08-11T12:49:34;0.10;;;0.10;;
23262;SDS011;11800;49.830;9.922;2022-08-11T12:52:21;0.05;;;0.05;;
23262;SDS011;11800;49.830;9.922;2022-08-11T12:54:50;0.10;;;0.10;;
23262;SDS011;11800;49.830;9.922;2022-08-11T13:00:08;0.10;;;0.10;;
23262;SDS011;11800;49.830;9.922;2022-08-11T13:02:53;0.10;;;0.10;;
23262;SDS011;11800;49.830;9.922;2022-08-11T13:05:38;0.10;;;0.10;;
23262;SDS011;11800;49.830;9.922;2022-08-11T13:08:05;0.10;;;0.10;;
23262;SDS011;11800;49.830;9.922;2022-08-11T13:10:32;0.10;;;0.10;;
23262;SDS011;11800;49.830;9.922;2022-08-11T13:13:17;0.10;;;0.10;;
23262;SDS011;11800;49.830;9.922;2022-08-11T13:15:47;0.10;;;0.10;;
23262;SDS011;11800;49.830;9.922;2022-08-11T13:18:23;0.10;;;0.10;;
23262;SDS011;11800;49.830;9.922;2022-08-11T13:20:52;0.10;;;0.10;;
23262;SDS011;11800;49.830;9.922;2022-08-11T13:23:19;0.10;;;0.10;;
23262;SDS011;11800;49.830;9.922;2022-08-11T13:25:45;0.10;;;0.10;;
23262;SDS011;11800;49.830;9.922;2022-08-11T13:28:12;0.10;;;0.10;;
23262;SDS011;11800;49.830;9.922;2022-08-11T13:30:38;0.10;;;0.10;;
23262;SDS011;11800;49.830;9.922;2022-08-11T13:33:23;0.10;;;0.10;;
23262;SDS011;11800;49.830;9.922;2022-08-11T13:35:51;0.10;;;0.10;;
23262;SDS011;11800;49.830;9.922;2022-08-11T13:38:20;0.10;;;0.10;;
23262;SDS011;11800;49.830;9.922;2022-08-11T13:40:47;0.20;;;0.20;;
23262;SDS011;11800;49.830;9.922;2022-08-11T13:43:14;0.10;;;0.10;;
23262;SDS011;11800;49.830;9.922;2022-08-11T13:45:41;0.17;;;0.17;;
23262;SDS011;11800;49.830;9.922;2022-08-11T13:48:08;0.10;;;0.10;;
23262;SDS011;11800;49.830;9.922;2022-08-11T13:50:34;0.20;;;0.20;;
23262;SDS011;11800;49.830;9.922;2022-08-11T13:53:21;0.10;;;0.10;;
23262;SDS011;11800;49.830;9.922;2022-08-11T13:55:47;0.10;;;0.10;;
23262;SDS011;11800;49.830;9.922;2022-08-11T13:58:14;0.10;;;0.10;;
23262;SDS011;11800;49.830;9.922;2022-08-11T14:00:43;0.10;;;0.10;;
23262;SDS011;11800;49.830;9.922;2022-08-11T14:03:10;0.10;;;0.10;;
23262;SDS011;11800;49.830;9.922;2022-08-11T14:05:41;0.10;;;0.10;;
23262;SDS011;11800;49.830;9.922;2022-08-11T14:08:11;0.10;;;0.10;;
23262;SDS011;11800;49.830;9.922;2022-08-11T14:10:38;0.10;;;0.10;;
23262;SDS011;11800;49.830;9.922;2022-08-11T14:13:09;0.10;;;0.10;;
23262;SDS011;11800;49.830;9.922;2022-08-11T14:15:54;0.10;;;0.10;;
23262;SDS011;11800;49.830;9.922;2022-08-11T14:18:26;0.20;;;0.20;;
23262;SDS011;11800;49.830;9.922;2022-08-11T14:20:54;0.20;;;0.20;;
23262;SDS011;11800;49.830;9.922;2022-08-11T14:23:40;0.20;;;0.20;;
23262;SDS011;11800;49.830;9.922;2022-08-11T14:26:11;0.20;;;0.20;;
23262;SDS011;11800;49.830;9.922;2022-08-11T14:31:19;0.20;;;0.20;;
23262;SDS011;11800;49.830;9.922;2022-08-11T14:33:46;0.17;;;0.17;;
23262;SDS011;11800;49.830;9.922;2022-08-11T14:36:13;0.20;;;0.20;;
23262;SDS011;11800;49.830;9.922;2022-08-11T14:38:40;0.20;;;0.20;;
23262;SDS011;11800;49.830;9.922;2022-08-11T14:41:06;0.30;;;0.30;;
23262;SDS011;11800;49.830;9.922;2022-08-11T14:43:55;0.30;;;0.30;;
23262;SDS011;11800;49.830;9.922;2022-08-11T14:46:40;0.32;;;0.32;;
23262;SDS011;11800;49.830;9.922;2022-08-11T14:49:26;0.30;;;0.30;;
23262;SDS011;11800;49.830;9.922;2022-08-11T14:51:52;0.30;;;0.30;;
23262;SDS011;11800;49.830;9.922;2022-08-11T14:54:21;0.25;;;0.25;;
23262;SDS011;11800;49.830;9.922;2022-08-11T14:57:06;0.20;;;0.20;;
23262;SDS011;11800;49.830;9.922;2022-08-11T14:59:32;0.20;;;0.20;;
23262;SDS011;11800;49.830;9.922;2022-08-11T15:02:00;0.20;;;0.20;;
23262;SDS011;11800;49.830;9.922;2022-08-11T15:04:44;0.20;;;0.20;;
23262;SDS011;11800;49.830;9.922;2022-08-11T15:07:10;0.20;;;0.20;;
23262;SDS011;11800;49.830;9.922;2022-08-11T15:09:39;0.20;;;0.20;;
23262;SDS011;11800;49.830;9.922;2022-08-11T15:12:08;0.10;;;0.10;;
23262;SDS011;11800;49.830;9.922;2022-08-11T15:14:40;0.10;;;0.10;;
23262;SDS011;11800;49.830;9.922;2022-08-11T15:17:26;0.20;;;0.20;;
23262;SDS011;11800;49.830;9.922;2022-08-11T15:19:52;0.10;;;0.10;;
23262;SDS011;11800;49.830;9.922;2022-08-11T15:25:22;0.10;;;0.10;;
23262;SDS011;11800;49.830;9.922;2022-08-11T15:27:49;0.10;;;0.10;;
23262;SDS011;11800;49.830;9.922;2022-08-11T15:30:34;0.10;;;0.10;;
23262;SDS011;11800;49.830;9.922;2022-08-11T15:33:20;0.10;;;0.10;;
23262;SDS011;11800;49.830;9.922;2022-08-11T15:36:06;0.10;;;0.10;;
23262;SDS011;11800;49.830;9.922;2022-08-11T15:38:59;0.10;;;0.10;;
23262;SDS011;11800;49.830;9.922;2022-08-11T15:41:35;0.10;;;0.10;;
23262;SDS011;11800;49.830;9.922;2022-08-11T15:44:22;0.10;;;0.10;;
23262;SDS011;11800;49.830;9.922;2022-08-11T15:47:10;0.10;;;0.10;;
23262;SDS011;11800;49.830;9.922;2022-08-11T15:49:38;0.10;;;0.10;;
23262;SDS011;11800;49.830;9.922;2022-08-11T15:52:06;0.10;;;0.10;;
23262;SDS011;11800;49.830;9.922;2022-08-11T15:54:34;0.10;;;0.10;;
23262;SDS011;11800;49.830;9.922;2022-08-11T15:57:00;0.10;;;0.10;;
23262;SDS011;11800;49.830;9.922;2022-08-11T15:59:27;0.10;;;0.10;;
23262;SDS011;11800;49.830;9.922;2022-08-11T16:02:15;0.10;;;0.10;;
23262;SDS011;11800;49.830;9.922;2022-08-11T16:05:04;0.10;;;0.10;;
23262;SDS011;11800;49.830;9.922;2022-08-11T16:07:31;0.05;;;0.05;;
23262;SDS011;11800;49.830;9.922;2022-08-11T16:10:06;0.10;;;0.10;;
23262;SDS011;11800;49.830;9.922;2022-08-11T16:12:38;0.10;;;0.10;;
23262;SDS011;11800;49.830;9.922;2022-08-11T16:15:06;0.08;;;0.08;;
23262;SDS011;11800;49.830;9.922;2022-08-11T16:18:10;0.10;;;0.10;;
23262;SDS011;11800;49.830;9.922;2022-08-11T16:20:38;0.10;;;0.10;;
23262;SDS011;11800;49.830;9.922;2022-08-11T16:23:04;0.10;;;0.10;;
23262;SDS011;11800;49.830;9.922;2022-08-11T16:25:32;0.10;;;0.10;;
23262;SDS011;11800;49.830;9.922;2022-08-11T16:27:59;0.10;;;0.10;;
23262;SDS011;11800;49.830;9.922;2022-08-11T16:30:29;0.10;;;0.10;;
23262;SDS011;11800;49.830;9.922;2022-08-11T16:32:56;0.10;;;0.10;;
23262;SDS011;11800;49.830;9.922;2022-08-11T16:35:23;0.10;;;0.10;;
23262;SDS011;11800;49.830;9.922;2022-08-11T16:38:09;0.10;;;0.10;;
23262;SDS011;11800;49.830;9.922;2022-08-11T16:40:55;0.10;;;0.10;;
23262;SDS011;11800;49.830;9.922;2022-08-11T16:43:23;0.10;;;0.10;;
23262;SDS011;11800;49.830;9.922;2022-08-11T16:46:08;0.10;;;0.10;;
23262;SDS011;11800;49.830;9.922;2022-08-11T16:48:53;0.03;;;0.03;;
23262;SDS011;11800;49.830;9.922;2022-08-11T16:51:20;0.10;;;0.10;;
23262;SDS011;11800;49.830;9.922;2022-08-11T16:53:47;0.10;;;0.10;;
23262;SDS011;11800;49.830;9.922;2022-08-11T16:56:15;0.10;;;0.10;;
23262;SDS011;11800;49.830;9.922;2022-08-11T16:58:43;0.10;;;0.10;;
23262;SDS011;11800;49.830;9.922;2022-08-11T17:01:30;0.10;;;0.10;;
23262;SDS011;11800;49.830;9.922;2022-08-11T17:04:02;0.08;;;0.08;;
23262;SDS011;11800;49.830;9.922;2022-08-11T17:06:49;0.10;;;0.10;;
23262;SDS011;11800;49.830;9.922;2022-08-11T17:09:35;0.00;;;0.00;;
23262;SDS011;11800;49.830;9.922;2022-08-11T17:12:20;0.00;;;0.00;;
23262;SDS011;11800;49.830;9.922;2022-08-11T17:15:08;0.10;;;0.10;;
23262;SDS011;11800;49.830;9.922;2022-08-11T17:17:56;0.10;;;0.10;;
23262;SDS011;11800;49.830;9.922;2022-08-11T17:20:22;0.10;;;0.10;;
23262;SDS011;11800;49.830;9.922;2022-08-11T17:22:49;0.10;;;0.10;;
23262;SDS011;11800;49.830;9.922;2022-08-11T17:25:34;0.10;;;0.10;;
23262;SDS011;11800;49.830;9.922;2022-08-11T17:28:00;0.10;;;0.10;;
23262;SDS011;11800;49.830;9.922;2022-08-11T17:30:27;0.10;;;0.10;;
23262;SDS011;11800;49.830;9.922;2022-08-11T17:33:14;0.10;;;0.10;;
23262;SDS011;11800;49.830;9.922;2022-08-11T17:35:59;0.10;;;0.10;;
23262;SDS011;11800;49.830;9.922;2022-08-11T17:38:25;0.10;;;0.10;;
23262;SDS011;11800;49.830;9.922;2022-08-11T17:40:52;0.08;;;0.08;;
23262;SDS011;11800;49.830;9.922;2022-08-11T17:43:37;0.00;;;0.00;;
23262;SDS011;11800;49.830;9.922;2022-08-11T17:46:23;0.10;;;0.10;;
23262;SDS011;11800;49.830;9.922;2022-08-11T17:49:10;0.10;;;0.10;;
23262;SDS011;11800;49.830;9.922;2022-08-11T17:51:37;0.10;;;0.10;;
23262;SDS011;11800;49.830;9.922;2022-08-11T17:54:23;0.10;;;0.10;;
23262;SDS011;11800;49.830;9.922;2022-08-11T17:57:09;0.00;;;0.00;;
23262;SDS011;11800;49.830;9.922;2022-08-11T17:59:53;0.00;;;0.00;;
23262;SDS011;11800;49.830;9.922;2022-08-11T18:02:28;0.10;;;0.10;;
23262;SDS011;11800;49.830;9.922;2022-08-11T18:05:14;0.10;;;0.10;;
23262;SDS011;11800;49.830;9.922;2022-08-11T18:07:42;0.00;;;0.00;;
23262;SDS011;11800;49.830;9.922;2022-08-11T18:10:28;0.10;;;0.10;;
23262;SDS011;11800;49.830;9.922;2022-08-11T18:13:14;0.10;;;0.10;;
23262;SDS011;11800;49.830;9.922;2022-08-11T18:16:00;0.00;;;0.00;;
23262;SDS011;11800;49.830;9.922;2022-08-11T18:18:44;0.00;;;0.00;;
23262;SDS011;11800;49.830;9.922;2022-08-11T18:21:29;0.10;;;0.10;;
23262;SDS011;11800;49.830;9.922;2022-08-11T18:24:14;0.00;;;0.00;;
23262;SDS011;11800;49.830;9.922;2022-08-11T18:29:45;0.00;;;0.00;;
23262;SDS011;11800;49.830;9.922;2022-08-11T18:32:31;0.10;;;0.10;;
23262;SDS011;11800;49.830;9.922;2022-08-11T18:38:02;0.00;;;0.00;;
23262;SDS011;11800;49.830;9.922;2022-08-11T18:40:48;0.03;;;0.03;;
23262;SDS011;11800;49.830;9.922;2022-08-11T18:43:33;0.00;;;0.00;;
23262;SDS011;11800;49.830;9.922;2022-08-11T18:46:20;0.00;;;0.00;;
23262;SDS011;11800;49.830;9.922;2022-08-11T18:49:07;0.00;;;0.00;;
23262;SDS011;11800;49.830;9.922;2022-08-11T18:51:53;0.00;;;0.00;;
23262;SDS011;11800;49.830;9.922;2022-08-11T18:54:40;0.00;;;0.00;;
23262;SDS011;11800;49.830;9.922;2022-08-11T18:57:26;0.03;;;0.03;;
23262;SDS011;11800;49.830;9.922;2022-08-11T19:00:11;0.00;;;0.00;;
23262;SDS011;11800;49.830;9.922;2022-08-11T19:02:56;0.00;;;0.00;;
23262;SDS011;11800;49.830;9.922;2022-08-11T19:05:41;0.00;;;0.00;;
23262;SDS011;11800;49.830;9.922;2022-08-11T19:08:29;0.00;;;0.00;;
23262;SDS011;11800;49.830;9.922;2022-08-11T19:11:14;0.00;;;0.00;;
23262;SDS011;11800;49.830;9.922;2022-08-11T19:14:00;0.00;;;0.00;;
23262;SDS011;11800;49.830;9.922;2022-08-11T19:19:30;0.10;;;0.10;;
23262;SDS011;11800;49.830;9.922;2022-08-11T19:22:15;0.00;;;0.00;;
23262;SDS011;11800;49.830;9.922;2022-08-11T19:27:45;0.10;;;0.10;;
23262;SDS011;11800;49.830;9.922;2022-08-11T19:30:31;0.00;;;0.00;;
23262;SDS011;11800;49.830;9.922;2022-08-11T19:33:16;0.00;;;0.00;;